sensor_id;sensor_type;location;lat;lon;timestamp;P1;durP1;ratioP1;P2;durP2;ratioP2
53052;SDS011;38934;52.690;6.184;2023-05-02T00:01:36;16.38;;;9.13;;
53052;SDS011;38934;52.690;6.184;2023-05-02T00:04:02;18.25;;;8.57;;
53052;SDS011;38934;52.690;6.184;2023-05-02T00:06:29;22.38;;;9.88;;
53052;SDS011;38934;52.690;6.184;2023-05-02T00:08:55;12.90;;;8.23;;
53052;SDS011;38934;52.690;6.184;2023-05-02T00:11:21;13.60;;;8.95;;
53052;SDS011;38934;52.690;6.184;2023-05-02T00:13:48;16.63;;;8.48;;
53052;SDS011;38934;52.690;6.184;2023-05-02T00:16:14;16.25;;;8.05;;
53052;SDS011;38934;52.690;6.184;2023-05-02T00:18:40;13.63;;;7.63;;
53052;SDS011;38934;52.690;6.184;2023-05-02T00:21:06;14.70;;;6.78;;
53052;SDS011;38934;52.690;6.184;2023-05-02T00:23:32;12.00;;;6.53;;
53052;SDS011;38934;52.690;6.184;2023-05-02T00:25:58;15.30;;;6.32;;
53052;SDS011;38934;52.690;6.184;2023-05-02T00:28:24;13.13;;;6.82;;
53052;SDS011;38934;52.690;6.184;2023-05-02T00:30:51;12.02;;;5.82;;
53052;SDS011;38934;52.690;6.184;2023-05-02T00:33:17;11.30;;;5.50;;
53052;SDS011;38934;52.690;6.184;2023-05-02T00:35:43;11.50;;;5.30;;
53052;SDS011;38934;52.690;6.184;2023-05-02T00:38:09;12.70;;;5.10;;
53052;SDS011;38934;52.690;6.184;2023-05-02T00:40:47;10.05;;;4.78;;
53052;SDS011;38934;52.690;6.184;2023-05-02T00:43:16;8.52;;;4.30;;
53052;SDS011;38934;52.690;6.184;2023-05-02T00:45:42;8.15;;;4.10;;
53052;SDS011;38934;52.690;6.184;2023-05-02T00:48:10;10.18;;;4.00;;
53052;SDS011;38934;52.690;6.184;2023-05-02T00:50:37;7.22;;;4.10;;
53052;SDS011;38934;52.690;6.184;2023-05-02T00:53:05;10.38;;;4.60;;
53052;SDS011;38934;52.690;6.184;2023-05-02T00:55:31;8.63;;;4.35;;
53052;SDS011;38934;52.690;6.184;2023-05-02T00:58:18;10.63;;;4.50;;
53052;SDS011;38934;52.690;6.184;2023-05-02T01:01:46;14.02;;;4.85;;
53052;SDS011;38934;52.690;6.184;2023-05-02T01:12:09;10.68;;;4.60;;
53052;SDS011;38934;52.690;6.184;2023-05-02T01:14:47;7.03;;;4.25;;
53052;SDS011;38934;52.690;6.184;2023-05-02T01:17:17;10.73;;;4.50;;
53052;SDS011;38934;52.690;6.184;2023-05-02T01:19:55;9.95;;;4.72;;
53052;SDS011;38934;52.690;6.184;2023-05-02T01:22:25;8.57;;;4.10;;
53052;SDS011;38934;52.690;6.184;2023-05-02T01:27:52;8.15;;;4.47;;
53052;SDS011;38934;52.690;6.184;2023-05-02T01:30:26;11.05;;;4.32;;
53052;SDS011;38934;52.690;6.184;2023-05-02T01:32:55;8.45;;;4.15;;
53052;SDS011;38934;52.690;6.184;2023-05-02T01:35:23;9.15;;;3.88;;
53052;SDS011;38934;52.690;6.184;2023-05-02T01:37:50;10.98;;;4.28;;
53052;SDS011;38934;52.690;6.184;2023-05-02T01:40:19;7.63;;;3.90;;
53052;SDS011;38934;52.690;6.184;2023-05-02T01:42:47;6.50;;;3.95;;
53052;SDS011;38934;52.690;6.184;2023-05-02T01:45:15;10.10;;;4.00;;
53052;SDS011;38934;52.690;6.184;2023-05-02T01:47:41;9.10;;;4.35;;
53052;SDS011;38934;52.690;6.184;2023-05-02T01:50:10;9.52;;;4.43;;
53052;SDS011;38934;52.690;6.184;2023-05-02T01:52:40;6.65;;;4.18;;
53052;SDS011;38934;52.690;6.184;2023-05-02T01:55:08;8.40;;;3.97;;
53052;SDS011;38934;52.690;6.184;2023-05-02T01:57:38;7.03;;;4.00;;
53052;SDS011;38934;52.690;6.184;2023-05-02T02:00:05;9.02;;;4.10;;
53052;SDS011;38934;52.690;6.184;2023-05-02T02:02:32;8.07;;;4.45;;
53052;SDS011;38934;52.690;6.184;2023-05-02T02:04:59;10.25;;;4.70;;
53052;SDS011;38934;52.690;6.184;2023-05-02T02:07:28;9.40;;;4.05;;
53052;SDS011;38934;52.690;6.184;2023-05-02T02:09:54;8.43;;;4.03;;
53052;SDS011;38934;52.690;6.184;2023-05-02T02:12:24;10.50;;;4.30;;
53052;SDS011;38934;52.690;6.184;2023-05-02T02:15:34;8.90;;;3.90;;
53052;SDS011;38934;52.690;6.184;2023-05-02T02:20:19;6.88;;;4.25;;
53052;SDS011;38934;52.690;6.184;2023-05-02T02:22:45;8.27;;;4.20;;
53052;SDS011;38934;52.690;6.184;2023-05-02T02:25:15;6.22;;;4.28;;
53052;SDS011;38934;52.690;6.184;2023-05-02T02:27:41;5.13;;;3.65;;
53052;SDS011;38934;52.690;6.184;2023-05-02T02:30:07;7.35;;;3.85;;
53052;SDS011;38934;52.690;6.184;2023-05-02T02:32:34;8.98;;;4.00;;
53052;SDS011;38934;52.690;6.184;2023-05-02T02:35:00;7.43;;;3.53;;
53052;SDS011;38934;52.690;6.184;2023-05-02T02:37:31;6.72;;;3.72;;
53052;SDS011;38934;52.690;6.184;2023-05-02T02:40:02;7.17;;;3.80;;
53052;SDS011;38934;52.690;6.184;2023-05-02T02:42:36;7.60;;;3.72;;
53052;SDS011;38934;52.690;6.184;2023-05-02T02:45:37;6.82;;;3.80;;
53052;SDS011;38934;52.690;6.184;2023-05-02T02:48:24;7.13;;;4.03;;
53052;SDS011;38934;52.690;6.184;2023-05-02T02:53:26;13.00;;;4.80;;
53052;SDS011;38934;52.690;6.184;2023-05-02T02:56:10;10.98;;;5.10;;
53052;SDS011;38934;52.690;6.184;2023-05-02T03:01:29;12.65;;;4.70;;
53052;SDS011;38934;52.690;6.184;2023-05-02T03:03:56;13.57;;;5.40;;
53052;SDS011;38934;52.690;6.184;2023-05-02T03:06:23;16.63;;;4.88;;
53052;SDS011;38934;52.690;6.184;2023-05-02T03:08:49;13.38;;;4.82;;
53052;SDS011;38934;52.690;6.184;2023-05-02T03:11:15;13.60;;;4.85;;
53052;SDS011;38934;52.690;6.184;2023-05-02T03:13:41;13.63;;;4.53;;
53052;SDS011;38934;52.690;6.184;2023-05-02T03:18:39;16.40;;;4.53;;
53052;SDS011;38934;52.690;6.184;2023-05-02T03:21:05;18.27;;;4.97;;
53052;SDS011;38934;52.690;6.184;2023-05-02T03:23:30;14.70;;;4.72;;
53052;SDS011;38934;52.690;6.184;2023-05-02T03:25:56;17.45;;;5.07;;
53052;SDS011;38934;52.690;6.184;2023-05-02T03:28:22;19.95;;;5.35;;
53052;SDS011;38934;52.690;6.184;2023-05-02T03:30:47;12.07;;;4.35;;
53052;SDS011;38934;52.690;6.184;2023-05-02T03:33:13;20.80;;;4.60;;
53052;SDS011;38934;52.690;6.184;2023-05-02T03:35:39;14.77;;;4.85;;
53052;SDS011;38934;52.690;6.184;2023-05-02T03:38:06;18.67;;;4.95;;
53052;SDS011;38934;52.690;6.184;2023-05-02T03:40:32;14.35;;;5.53;;
53052;SDS011;38934;52.690;6.184;2023-05-02T03:42:58;19.45;;;5.00;;
53052;SDS011;38934;52.690;6.184;2023-05-02T03:45:23;16.13;;;5.32;;
53052;SDS011;38934;52.690;6.184;2023-05-02T03:47:49;14.82;;;4.97;;
53052;SDS011;38934;52.690;6.184;2023-05-02T03:50:15;18.90;;;5.93;;
53052;SDS011;38934;52.690;6.184;2023-05-02T03:52:41;18.13;;;4.20;;
53052;SDS011;38934;52.690;6.184;2023-05-02T03:55:06;16.88;;;4.53;;
53052;SDS011;38934;52.690;6.184;2023-05-02T03:57:32;13.60;;;4.63;;
53052;SDS011;38934;52.690;6.184;2023-05-02T03:59:58;19.35;;;4.72;;
53052;SDS011;38934;52.690;6.184;2023-05-02T04:02:24;21.05;;;4.50;;
53052;SDS011;38934;52.690;6.184;2023-05-02T04:04:50;18.27;;;5.40;;
53052;SDS011;38934;52.690;6.184;2023-05-02T04:07:16;18.20;;;4.78;;
53052;SDS011;38934;52.690;6.184;2023-05-02T04:09:46;17.55;;;4.53;;
53052;SDS011;38934;52.690;6.184;2023-05-02T04:12:13;16.52;;;5.35;;
53052;SDS011;38934;52.690;6.184;2023-05-02T04:14:39;12.48;;;4.45;;
53052;SDS011;38934;52.690;6.184;2023-05-02T04:17:05;16.73;;;4.80;;
53052;SDS011;38934;52.690;6.184;2023-05-02T04:19:30;12.60;;;4.25;;
53052;SDS011;38934;52.690;6.184;2023-05-02T04:21:56;14.80;;;4.40;;
53052;SDS011;38934;52.690;6.184;2023-05-02T04:24:23;13.02;;;4.80;;
53052;SDS011;38934;52.690;6.184;2023-05-02T04:26:49;15.15;;;4.63;;
53052;SDS011;38934;52.690;6.184;2023-05-02T04:29:15;13.70;;;4.72;;
53052;SDS011;38934;52.690;6.184;2023-05-02T04:31:41;15.98;;;4.45;;
53052;SDS011;38934;52.690;6.184;2023-05-02T04:34:07;12.57;;;4.68;;
53052;SDS011;38934;52.690;6.184;2023-05-02T04:36:32;16.58;;;3.97;;
53052;SDS011;38934;52.690;6.184;2023-05-02T04:38:58;11.40;;;3.47;;
53052;SDS011;38934;52.690;6.184;2023-05-02T04:41:24;11.98;;;3.60;;
53052;SDS011;38934;52.690;6.184;2023-05-02T04:43:50;10.27;;;3.70;;
53052;SDS011;38934;52.690;6.184;2023-05-02T04:46:16;10.07;;;3.38;;
53052;SDS011;38934;52.690;6.184;2023-05-02T04:48:42;12.00;;;3.70;;
53052;SDS011;38934;52.690;6.184;2023-05-02T04:51:08;10.68;;;3.50;;
53052;SDS011;38934;52.690;6.184;2023-05-02T04:53:34;15.00;;;4.07;;
53052;SDS011;38934;52.690;6.184;2023-05-02T04:56:01;9.93;;;3.63;;
53052;SDS011;38934;52.690;6.184;2023-05-02T04:58:26;15.52;;;3.85;;
53052;SDS011;38934;52.690;6.184;2023-05-02T05:00:52;17.60;;;4.10;;
53052;SDS011;38934;52.690;6.184;2023-05-02T05:03:18;12.00;;;3.95;;
53052;SDS011;38934;52.690;6.184;2023-05-02T05:05:44;10.48;;;3.60;;
53052;SDS011;38934;52.690;6.184;2023-05-02T05:08:10;13.80;;;3.80;;
53052;SDS011;38934;52.690;6.184;2023-05-02T05:10:36;11.88;;;3.65;;
53052;SDS011;38934;52.690;6.184;2023-05-02T05:13:01;13.15;;;3.40;;
53052;SDS011;38934;52.690;6.184;2023-05-02T05:15:28;13.13;;;3.80;;
53052;SDS011;38934;52.690;6.184;2023-05-02T05:17:54;10.80;;;3.38;;
53052;SDS011;38934;52.690;6.184;2023-05-02T05:20:19;9.93;;;3.10;;
53052;SDS011;38934;52.690;6.184;2023-05-02T05:22:45;10.82;;;3.20;;
53052;SDS011;38934;52.690;6.184;2023-05-02T05:25:11;12.43;;;3.45;;
53052;SDS011;38934;52.690;6.184;2023-05-02T05:27:37;10.60;;;3.50;;
53052;SDS011;38934;52.690;6.184;2023-05-02T05:30:06;12.48;;;3.17;;
53052;SDS011;38934;52.690;6.184;2023-05-02T05:32:33;8.73;;;2.85;;
53052;SDS011;38934;52.690;6.184;2023-05-02T05:34:59;13.18;;;3.08;;
53052;SDS011;38934;52.690;6.184;2023-05-02T05:37:25;9.60;;;2.85;;
53052;SDS011;38934;52.690;6.184;2023-05-02T05:39:51;10.73;;;2.90;;
53052;SDS011;38934;52.690;6.184;2023-05-02T05:42:16;7.05;;;2.70;;
53052;SDS011;38934;52.690;6.184;2023-05-02T05:44:42;6.90;;;2.50;;
53052;SDS011;38934;52.690;6.184;2023-05-02T05:47:07;8.48;;;2.90;;
53052;SDS011;38934;52.690;6.184;2023-05-02T05:49:33;6.93;;;2.63;;
53052;SDS011;38934;52.690;6.184;2023-05-02T05:52:00;6.68;;;2.60;;
53052;SDS011;38934;52.690;6.184;2023-05-02T05:54:26;5.78;;;2.35;;
53052;SDS011;38934;52.690;6.184;2023-05-02T05:56:54;7.53;;;2.38;;
53052;SDS011;38934;52.690;6.184;2023-05-02T05:59:20;8.68;;;2.67;;
53052;SDS011;38934;52.690;6.184;2023-05-02T06:01:46;10.23;;;2.67;;
53052;SDS011;38934;52.690;6.184;2023-05-02T06:04:11;6.47;;;2.70;;
53052;SDS011;38934;52.690;6.184;2023-05-02T06:06:37;8.07;;;2.40;;
53052;SDS011;38934;52.690;6.184;2023-05-02T06:09:02;9.10;;;2.53;;
53052;SDS011;38934;52.690;6.184;2023-05-02T06:11:28;8.73;;;2.65;;
53052;SDS011;38934;52.690;6.184;2023-05-02T06:13:54;10.13;;;2.83;;
53052;SDS011;38934;52.690;6.184;2023-05-02T06:16:20;6.70;;;2.40;;
53052;SDS011;38934;52.690;6.184;2023-05-02T06:18:45;7.05;;;2.70;;
53052;SDS011;38934;52.690;6.184;2023-05-02T06:21:11;11.60;;;2.67;;
53052;SDS011;38934;52.690;6.184;2023-05-02T06:23:37;9.07;;;2.67;;
53052;SDS011;38934;52.690;6.184;2023-05-02T06:26:03;7.13;;;2.50;;
53052;SDS011;38934;52.690;6.184;2023-05-02T06:28:30;11.07;;;2.83;;
53052;SDS011;38934;52.690;6.184;2023-05-02T06:31:03;7.10;;;2.63;;
53052;SDS011;38934;52.690;6.184;2023-05-02T06:33:30;4.78;;;2.42;;
53052;SDS011;38934;52.690;6.184;2023-05-02T06:35:56;8.80;;;2.60;;
53052;SDS011;38934;52.690;6.184;2023-05-02T06:38:23;10.35;;;3.13;;
53052;SDS011;38934;52.690;6.184;2023-05-02T06:40:49;5.18;;;2.38;;
53052;SDS011;38934;52.690;6.184;2023-05-02T06:43:15;7.45;;;2.97;;
53052;SDS011;38934;52.690;6.184;2023-05-02T06:45:41;8.40;;;2.47;;
53052;SDS011;38934;52.690;6.184;2023-05-02T06:48:07;7.10;;;2.70;;
53052;SDS011;38934;52.690;6.184;2023-05-02T06:50:33;10.95;;;2.90;;
53052;SDS011;38934;52.690;6.184;2023-05-02T06:52:59;9.40;;;2.90;;
53052;SDS011;38934;52.690;6.184;2023-05-02T06:55:25;8.05;;;2.60;;
53052;SDS011;38934;52.690;6.184;2023-05-02T06:57:51;7.00;;;2.58;;
53052;SDS011;38934;52.690;6.184;2023-05-02T07:00:17;10.55;;;2.45;;
53052;SDS011;38934;52.690;6.184;2023-05-02T07:02:47;8.23;;;2.70;;
53052;SDS011;38934;52.690;6.184;2023-05-02T07:05:13;8.57;;;2.70;;
53052;SDS011;38934;52.690;6.184;2023-05-02T07:07:43;7.18;;;2.60;;
53052;SDS011;38934;52.690;6.184;2023-05-02T07:10:09;10.75;;;3.47;;
53052;SDS011;38934;52.690;6.184;2023-05-02T07:12:35;10.73;;;2.95;;
53052;SDS011;38934;52.690;6.184;2023-05-02T07:15:02;7.82;;;2.78;;
53052;SDS011;38934;52.690;6.184;2023-05-02T07:17:29;6.70;;;2.55;;
53052;SDS011;38934;52.690;6.184;2023-05-02T07:19:54;8.38;;;2.70;;
53052;SDS011;38934;52.690;6.184;2023-05-02T07:22:20;9.18;;;2.83;;
53052;SDS011;38934;52.690;6.184;2023-05-02T07:24:46;9.98;;;3.20;;
53052;SDS011;38934;52.690;6.184;2023-05-02T07:27:11;6.10;;;2.60;;
53052;SDS011;38934;52.690;6.184;2023-05-02T07:29:37;8.70;;;3.33;;
53052;SDS011;38934;52.690;6.184;2023-05-02T07:32:03;11.10;;;3.35;;
53052;SDS011;38934;52.690;6.184;2023-05-02T07:34:30;8.73;;;2.78;;
53052;SDS011;38934;52.690;6.184;2023-05-02T07:36:57;6.70;;;2.88;;
53052;SDS011;38934;52.690;6.184;2023-05-02T07:39:23;10.65;;;2.80;;
53052;SDS011;38934;52.690;6.184;2023-05-02T07:41:52;10.23;;;3.42;;
53052;SDS011;38934;52.690;6.184;2023-05-02T07:44:18;13.50;;;3.28;;
53052;SDS011;38934;52.690;6.184;2023-05-02T07:46:45;10.43;;;3.30;;
53052;SDS011;38934;52.690;6.184;2023-05-02T07:49:11;7.78;;;2.75;;
53052;SDS011;38934;52.690;6.184;2023-05-02T07:51:37;11.55;;;3.17;;
53052;SDS011;38934;52.690;6.184;2023-05-02T07:54:13;6.30;;;2.88;;
53052;SDS011;38934;52.690;6.184;2023-05-02T07:56:43;7.22;;;2.45;;
53052;SDS011;38934;52.690;6.184;2023-05-02T07:59:09;12.02;;;3.08;;
53052;SDS011;38934;52.690;6.184;2023-05-02T08:01:35;8.45;;;2.95;;
53052;SDS011;38934;52.690;6.184;2023-05-02T08:04:01;10.30;;;3.25;;
53052;SDS011;38934;52.690;6.184;2023-05-02T08:06:28;7.25;;;3.00;;
53052;SDS011;38934;52.690;6.184;2023-05-02T08:08:54;8.23;;;2.65;;
53052;SDS011;38934;52.690;6.184;2023-05-02T08:11:20;7.30;;;2.75;;
53052;SDS011;38934;52.690;6.184;2023-05-02T08:13:49;6.88;;;2.50;;
53052;SDS011;38934;52.690;6.184;2023-05-02T08:16:17;10.00;;;3.28;;
53052;SDS011;38934;52.690;6.184;2023-05-02T08:18:44;7.70;;;3.13;;
53052;SDS011;38934;52.690;6.184;2023-05-02T08:21:10;6.72;;;2.80;;
53052;SDS011;38934;52.690;6.184;2023-05-02T08:23:35;8.43;;;2.88;;
53052;SDS011;38934;52.690;6.184;2023-05-02T08:26:04;7.15;;;2.95;;
53052;SDS011;38934;52.690;6.184;2023-05-02T08:28:30;7.97;;;2.70;;
53052;SDS011;38934;52.690;6.184;2023-05-02T08:30:55;7.65;;;2.88;;
53052;SDS011;38934;52.690;6.184;2023-05-02T08:33:21;8.65;;;3.00;;
53052;SDS011;38934;52.690;6.184;2023-05-02T08:35:47;6.68;;;2.75;;
53052;SDS011;38934;52.690;6.184;2023-05-02T08:38:13;7.60;;;2.92;;
53052;SDS011;38934;52.690;6.184;2023-05-02T08:40:38;7.22;;;2.90;;
53052;SDS011;38934;52.690;6.184;2023-05-02T08:43:04;8.73;;;2.80;;
53052;SDS011;38934;52.690;6.184;2023-05-02T08:45:34;7.32;;;3.08;;
53052;SDS011;38934;52.690;6.184;2023-05-02T08:48:07;6.83;;;3.17;;
53052;SDS011;38934;52.690;6.184;2023-05-02T08:53:05;6.55;;;2.60;;
53052;SDS011;38934;52.690;6.184;2023-05-02T08:55:33;12.00;;;2.88;;
53052;SDS011;38934;52.690;6.184;2023-05-02T08:58:00;8.73;;;3.00;;
53052;SDS011;38934;52.690;6.184;2023-05-02T09:00:28;6.82;;;2.80;;
53052;SDS011;38934;52.690;6.184;2023-05-02T09:05:23;5.82;;;2.63;;
53052;SDS011;38934;52.690;6.184;2023-05-02T09:07:49;7.07;;;2.78;;
53052;SDS011;38934;52.690;6.184;2023-05-02T09:10:15;8.88;;;3.05;;
53052;SDS011;38934;52.690;6.184;2023-05-02T09:12:41;8.45;;;3.42;;
53052;SDS011;38934;52.690;6.184;2023-05-02T09:15:11;6.30;;;2.88;;
53052;SDS011;38934;52.690;6.184;2023-05-02T09:17:39;7.28;;;2.97;;
53052;SDS011;38934;52.690;6.184;2023-05-02T09:20:12;5.35;;;2.65;;
53052;SDS011;38934;52.690;6.184;2023-05-02T09:22:39;7.13;;;2.85;;
53052;SDS011;38934;52.690;6.184;2023-05-02T09:25:15;7.45;;;3.30;;
53052;SDS011;38934;52.690;6.184;2023-05-02T09:27:54;9.27;;;3.13;;
53052;SDS011;38934;52.690;6.184;2023-05-02T09:30:21;10.07;;;3.15;;
53052;SDS011;38934;52.690;6.184;2023-05-02T09:32:49;10.88;;;3.33;;
53052;SDS011;38934;52.690;6.184;2023-05-02T09:35:16;7.30;;;3.10;;
53052;SDS011;38934;52.690;6.184;2023-05-02T09:37:57;8.15;;;2.90;;
53052;SDS011;38934;52.690;6.184;2023-05-02T09:40:23;8.77;;;3.17;;
53052;SDS011;38934;52.690;6.184;2023-05-02T09:42:50;8.43;;;3.15;;
53052;SDS011;38934;52.690;6.184;2023-05-02T09:45:23;8.13;;;3.60;;
53052;SDS011;38934;52.690;6.184;2023-05-02T09:47:50;7.63;;;3.15;;
53052;SDS011;38934;52.690;6.184;2023-05-02T09:50:35;8.55;;;3.47;;
53052;SDS011;38934;52.690;6.184;2023-05-02T09:53:11;9.63;;;3.20;;
53052;SDS011;38934;52.690;6.184;2023-05-02T09:55:36;7.53;;;2.83;;
53052;SDS011;38934;52.690;6.184;2023-05-02T09:58:02;8.13;;;3.42;;
53052;SDS011;38934;52.690;6.184;2023-05-02T10:00:38;5.97;;;3.10;;
53052;SDS011;38934;52.690;6.184;2023-05-02T10:03:07;8.43;;;2.90;;
53052;SDS011;38934;52.690;6.184;2023-05-02T10:05:37;8.77;;;2.92;;
53052;SDS011;38934;52.690;6.184;2023-05-02T10:08:04;7.60;;;2.65;;
53052;SDS011;38934;52.690;6.184;2023-05-02T10:10:39;7.95;;;2.83;;
53052;SDS011;38934;52.690;6.184;2023-05-02T10:13:06;6.15;;;2.95;;
53052;SDS011;38934;52.690;6.184;2023-05-02T10:15:33;5.70;;;2.58;;
53052;SDS011;38934;52.690;6.184;2023-05-02T10:18:11;5.95;;;2.50;;
53052;SDS011;38934;52.690;6.184;2023-05-02T10:20:50;2.85;;;2.30;;
53052;SDS011;38934;52.690;6.184;2023-05-02T10:23:29;10.73;;;2.42;;
53052;SDS011;38934;52.690;6.184;2023-05-02T10:25:56;7.82;;;2.63;;
53052;SDS011;38934;52.690;6.184;2023-05-02T10:28:22;7.55;;;2.47;;
53052;SDS011;38934;52.690;6.184;2023-05-02T10:30:50;5.88;;;2.47;;
53052;SDS011;38934;52.690;6.184;2023-05-02T10:33:17;5.00;;;2.40;;
53052;SDS011;38934;52.690;6.184;2023-05-02T10:35:45;7.95;;;2.45;;
53052;SDS011;38934;52.690;6.184;2023-05-02T10:38:12;4.65;;;1.90;;
53052;SDS011;38934;52.690;6.184;2023-05-02T10:40:40;4.38;;;2.20;;
53052;SDS011;38934;52.690;6.184;2023-05-02T10:43:06;6.00;;;2.45;;
53052;SDS011;38934;52.690;6.184;2023-05-02T10:45:37;4.18;;;2.15;;
53052;SDS011;38934;52.690;6.184;2023-05-02T10:48:19;7.80;;;2.38;;
53052;SDS011;38934;52.690;6.184;2023-05-02T10:50:52;6.43;;;1.92;;
53052;SDS011;38934;52.690;6.184;2023-05-02T10:53:22;4.97;;;2.00;;
53052;SDS011;38934;52.690;6.184;2023-05-02T10:56:14;4.63;;;2.28;;
53052;SDS011;38934;52.690;6.184;2023-05-02T10:58:50;7.82;;;2.50;;
53052;SDS011;38934;52.690;6.184;2023-05-02T11:03:57;10.13;;;2.50;;
53052;SDS011;38934;52.690;6.184;2023-05-02T11:06:26;6.00;;;2.38;;
53052;SDS011;38934;52.690;6.184;2023-05-02T11:11:45;5.50;;;1.92;;
53052;SDS011;38934;52.690;6.184;2023-05-02T11:14:57;8.32;;;2.58;;
53052;SDS011;38934;52.690;6.184;2023-05-02T11:19:24;7.55;;;2.53;;
53052;SDS011;38934;52.690;6.184;2023-05-02T11:21:49;6.40;;;2.60;;
53052;SDS011;38934;52.690;6.184;2023-05-02T11:29:59;4.50;;;1.90;;
53052;SDS011;38934;52.690;6.184;2023-05-02T11:33:12;3.22;;;1.70;;
53052;SDS011;38934;52.690;6.184;2023-05-02T11:37:53;3.78;;;1.85;;
53052;SDS011;38934;52.690;6.184;2023-05-02T11:40:27;2.40;;;1.60;;
53052;SDS011;38934;52.690;6.184;2023-05-02T11:42:54;4.72;;;1.77;;
53052;SDS011;38934;52.690;6.184;2023-05-02T11:45:21;4.07;;;1.92;;
53052;SDS011;38934;52.690;6.184;2023-05-02T11:48:12;5.53;;;1.85;;
53052;SDS011;38934;52.690;6.184;2023-05-02T11:50:47;5.38;;;2.00;;
53052;SDS011;38934;52.690;6.184;2023-05-02T11:53:15;3.30;;;1.80;;
53052;SDS011;38934;52.690;6.184;2023-05-02T11:55:52;5.43;;;2.08;;
53052;SDS011;38934;52.690;6.184;2023-05-02T11:58:20;6.05;;;2.20;;
53052;SDS011;38934;52.690;6.184;2023-05-02T12:00:47;2.42;;;1.67;;
53052;SDS011;38934;52.690;6.184;2023-05-02T12:03:23;5.00;;;1.67;;
53052;SDS011;38934;52.690;6.184;2023-05-02T12:05:56;3.67;;;1.80;;
53052;SDS011;38934;52.690;6.184;2023-05-02T12:08:33;5.63;;;2.10;;
53052;SDS011;38934;52.690;6.184;2023-05-02T12:10:59;5.28;;;2.22;;
53052;SDS011;38934;52.690;6.184;2023-05-02T12:13:24;3.63;;;1.70;;
53052;SDS011;38934;52.690;6.184;2023-05-02T12:15:52;3.78;;;2.10;;
53052;SDS011;38934;52.690;6.184;2023-05-02T12:18:20;4.90;;;1.90;;
53052;SDS011;38934;52.690;6.184;2023-05-02T12:20:48;6.70;;;2.15;;
53052;SDS011;38934;52.690;6.184;2023-05-02T12:23:15;7.53;;;2.30;;
53052;SDS011;38934;52.690;6.184;2023-05-02T12:25:42;4.57;;;2.00;;
53052;SDS011;38934;52.690;6.184;2023-05-02T12:28:08;4.53;;;1.90;;
53052;SDS011;38934;52.690;6.184;2023-05-02T12:30:35;5.00;;;2.08;;
53052;SDS011;38934;52.690;6.184;2023-05-02T12:33:05;3.20;;;1.60;;
53052;SDS011;38934;52.690;6.184;2023-05-02T12:35:32;3.95;;;2.15;;
53052;SDS011;38934;52.690;6.184;2023-05-02T12:38:12;4.18;;;1.80;;
53052;SDS011;38934;52.690;6.184;2023-05-02T12:43:11;4.50;;;1.63;;
53052;SDS011;38934;52.690;6.184;2023-05-02T12:45:36;2.83;;;1.67;;
53052;SDS011;38934;52.690;6.184;2023-05-02T12:48:35;4.10;;;1.60;;
53052;SDS011;38934;52.690;6.184;2023-05-02T12:50:54;2.77;;;1.83;;
53052;SDS011;38934;52.690;6.184;2023-05-02T12:56:09;4.60;;;1.85;;
53052;SDS011;38934;52.690;6.184;2023-05-02T12:58:45;1.80;;;1.60;;
53052;SDS011;38934;52.690;6.184;2023-05-02T13:01:12;3.22;;;1.80;;
53052;SDS011;38934;52.690;6.184;2023-05-02T13:03:39;2.28;;;1.70;;
53052;SDS011;38934;52.690;6.184;2023-05-02T13:06:05;5.13;;;2.35;;
53052;SDS011;38934;52.690;6.184;2023-05-02T13:08:31;3.38;;;2.10;;
53052;SDS011;38934;52.690;6.184;2023-05-02T13:10:58;3.53;;;2.00;;
53052;SDS011;38934;52.690;6.184;2023-05-02T13:13:24;5.40;;;2.20;;
53052;SDS011;38934;52.690;6.184;2023-05-02T13:15:50;5.10;;;1.80;;
53052;SDS011;38934;52.690;6.184;2023-05-02T13:18:15;5.55;;;2.38;;
53052;SDS011;38934;52.690;6.184;2023-05-02T13:20:41;3.53;;;2.05;;
53052;SDS011;38934;52.690;6.184;2023-05-02T13:23:06;5.75;;;1.88;;
53052;SDS011;38934;52.690;6.184;2023-05-02T13:25:32;5.03;;;2.13;;
53052;SDS011;38934;52.690;6.184;2023-05-02T13:27:57;3.63;;;1.88;;
53052;SDS011;38934;52.690;6.184;2023-05-02T13:30:23;5.47;;;2.20;;
53052;SDS011;38934;52.690;6.184;2023-05-02T13:32:49;3.80;;;1.90;;
53052;SDS011;38934;52.690;6.184;2023-05-02T13:35:14;5.28;;;2.33;;
53052;SDS011;38934;52.690;6.184;2023-05-02T13:37:40;8.20;;;2.80;;
53052;SDS011;38934;52.690;6.184;2023-05-02T13:40:06;5.22;;;2.50;;
53052;SDS011;38934;52.690;6.184;2023-05-02T13:42:32;7.18;;;2.67;;
53052;SDS011;38934;52.690;6.184;2023-05-02T13:44:58;4.78;;;2.25;;
53052;SDS011;38934;52.690;6.184;2023-05-02T13:47:27;5.30;;;2.35;;
53052;SDS011;38934;52.690;6.184;2023-05-02T13:49:52;6.03;;;2.38;;
53052;SDS011;38934;52.690;6.184;2023-05-02T13:52:18;4.97;;;2.10;;
53052;SDS011;38934;52.690;6.184;2023-05-02T13:54:43;2.97;;;1.80;;
53052;SDS011;38934;52.690;6.184;2023-05-02T13:57:09;4.35;;;2.20;;
53052;SDS011;38934;52.690;6.184;2023-05-02T13:59:35;5.50;;;2.22;;
53052;SDS011;38934;52.690;6.184;2023-05-02T14:02:01;3.40;;;2.10;;
53052;SDS011;38934;52.690;6.184;2023-05-02T14:04:27;4.65;;;2.50;;
53052;SDS011;38934;52.690;6.184;2023-05-02T14:06:52;4.75;;;2.15;;
53052;SDS011;38934;52.690;6.184;2023-05-02T14:09:18;4.25;;;2.20;;
53052;SDS011;38934;52.690;6.184;2023-05-02T14:11:44;3.42;;;2.10;;
53052;SDS011;38934;52.690;6.184;2023-05-02T14:14:11;5.45;;;2.10;;
53052;SDS011;38934;52.690;6.184;2023-05-02T14:16:37;4.20;;;2.35;;
53052;SDS011;38934;52.690;6.184;2023-05-02T14:19:03;4.28;;;2.10;;
53052;SDS011;38934;52.690;6.184;2023-05-02T14:21:29;4.53;;;2.20;;
53052;SDS011;38934;52.690;6.184;2023-05-02T14:23:55;4.00;;;2.40;;
53052;SDS011;38934;52.690;6.184;2023-05-02T14:26:21;5.93;;;2.38;;
53052;SDS011;38934;52.690;6.184;2023-05-02T14:28:47;4.03;;;2.25;;
53052;SDS011;38934;52.690;6.184;2023-05-02T14:31:12;5.05;;;2.20;;
53052;SDS011;38934;52.690;6.184;2023-05-02T14:33:38;3.53;;;1.80;;
53052;SDS011;38934;52.690;6.184;2023-05-02T14:36:04;4.90;;;1.88;;
53052;SDS011;38934;52.690;6.184;2023-05-02T14:38:29;4.63;;;2.10;;
53052;SDS011;38934;52.690;6.184;2023-05-02T14:40:55;4.30;;;2.00;;
53052;SDS011;38934;52.690;6.184;2023-05-02T14:43:21;3.60;;;2.00;;
53052;SDS011;38934;52.690;6.184;2023-05-02T14:45:47;5.57;;;2.38;;
53052;SDS011;38934;52.690;6.184;2023-05-02T14:48:12;5.53;;;2.00;;
53052;SDS011;38934;52.690;6.184;2023-05-02T14:50:40;5.35;;;2.08;;
53052;SDS011;38934;52.690;6.184;2023-05-02T14:53:06;5.03;;;2.38;;
53052;SDS011;38934;52.690;6.184;2023-05-02T14:55:35;3.13;;;1.80;;
53052;SDS011;38934;52.690;6.184;2023-05-02T14:58:02;4.22;;;2.13;;
53052;SDS011;38934;52.690;6.184;2023-05-02T15:00:29;5.45;;;1.85;;
53052;SDS011;38934;52.690;6.184;2023-05-02T15:02:57;3.35;;;1.70;;
53052;SDS011;38934;52.690;6.184;2023-05-02T15:05:22;6.28;;;2.15;;
53052;SDS011;38934;52.690;6.184;2023-05-02T15:07:48;6.53;;;2.28;;
53052;SDS011;38934;52.690;6.184;2023-05-02T15:10:14;4.63;;;2.00;;
53052;SDS011;38934;52.690;6.184;2023-05-02T15:12:39;3.80;;;1.60;;
53052;SDS011;38934;52.690;6.184;2023-05-02T15:15:07;3.22;;;1.65;;
53052;SDS011;38934;52.690;6.184;2023-05-02T15:17:33;3.67;;;1.60;;
53052;SDS011;38934;52.690;6.184;2023-05-02T15:19:58;1.98;;;1.60;;
53052;SDS011;38934;52.690;6.184;2023-05-02T15:22:24;2.92;;;1.73;;
53052;SDS011;38934;52.690;6.184;2023-05-02T15:24:50;7.00;;;2.03;;
53052;SDS011;38934;52.690;6.184;2023-05-02T15:27:16;5.03;;;2.40;;
53052;SDS011;38934;52.690;6.184;2023-05-02T15:29:41;3.17;;;1.70;;
53052;SDS011;38934;52.690;6.184;2023-05-02T15:32:07;4.07;;;1.95;;
53052;SDS011;38934;52.690;6.184;2023-05-02T15:34:33;2.60;;;1.38;;
53052;SDS011;38934;52.690;6.184;2023-05-02T15:36:58;2.50;;;1.60;;